createdAt,value
2022-09-05T00:00:11.549Z,23.05
2022-09-05T00:02:49.997Z,22.98
2022-09-05T00:05:31.365Z,22.90
2022-09-05T00:08:03.752Z,22.95
2022-09-05T00:10:37.457Z,23.01
2022-09-05T00:13:24.926Z,23.01
2022-09-05T00:16:07.470Z,22.94
2022-09-05T00:24:17.498Z,22.81
2022-09-05T00:24:32.508Z,22.83
2022-09-05T00:25:31.296Z,22.90
2022-09-05T00:28:25.691Z,23.12
2022-09-05T00:31:53.881Z,23.01
2022-09-05T00:34:20.021Z,22.73
2022-09-05T00:36:49.821Z,22.71
2022-09-05T00:39:37.341Z,22.67
2022-09-05T00:42:10.687Z,22.59
2022-09-05T00:44:50.589Z,22.41
2022-09-05T00:47:33.605Z,22.56
2022-09-05T00:50:06.303Z,22.48
2022-09-05T00:52:41.727Z,22.27
2022-09-05T00:55:24.946Z,22.29
2022-09-05T00:58:10.011Z,22.14
2022-09-05T01:00:56.811Z,22.23
2022-09-05T01:03:47.941Z,22.10
2022-09-05T01:06:20.921Z,22.25
2022-09-05T01:09:07.367Z,22.47
2022-09-05T01:11:53.499Z,22.51
2022-09-05T01:14:45.045Z,22.61
2022-09-05T01:17:28.897Z,22.38
2022-09-05T01:20:19.198Z,22.32
2022-09-05T01:22:49.162Z,22.15
2022-09-05T01:25:55.324Z,22.22
2022-09-05T01:29:16.255Z,22.10
2022-09-05T01:32:15.555Z,22.11
2022-09-05T01:35:03.516Z,22.18
2022-09-05T01:37:44.835Z,22.05
2022-09-05T01:41:01.232Z,22.11
2022-09-05T01:44:10.497Z,22.14
2022-09-05T01:46:40.134Z,22.18
2022-09-05T01:49:29.503Z,22.17
2022-09-05T01:52:19.824Z,22.17
2022-09-05T01:55:11.061Z,22.03
2022-09-05T01:57:53.587Z,22.12
2022-09-05T02:00:24.819Z,22.08
2022-09-05T02:03:45.693Z,21.94
2022-09-05T02:06:30.928Z,21.96
2022-09-05T02:09:10.183Z,21.95
2022-09-05T02:11:58.672Z,21.90
2022-09-05T02:14:43.292Z,21.92
2022-09-05T02:17:23.359Z,21.84
2022-09-05T02:20:23.751Z,21.84
2022-09-05T02:23:40.365Z,21.96
2022-09-05T02:26:14.301Z,21.96
2022-09-05T02:29:03.168Z,21.94
2022-09-05T02:31:48.398Z,21.84
2022-09-05T02:34:22.361Z,21.86
2022-09-05T02:37:03.356Z,22.01
2022-09-05T02:45:00.398Z,22.11
2022-09-05T02:45:19.866Z,21.99
2022-09-05T02:45:44.850Z,22.02
2022-09-05T02:48:37.057Z,22.11
2022-09-05T02:57:25.576Z,21.94
2022-09-05T02:57:36.177Z,21.90
2022-09-05T02:58:07.675Z,21.90
2022-09-05T03:00:40.136Z,21.78
2022-09-05T03:03:09.666Z,21.79
2022-09-05T03:05:51.069Z,21.84
2022-09-05T03:08:38.904Z,22.00
2022-09-05T03:11:33.418Z,22.07
2022-09-05T03:14:41.337Z,21.94
2022-09-05T03:17:26.568Z,21.86
2022-09-05T03:20:14.064Z,21.95
2022-09-05T03:22:58.806Z,21.82
2022-09-05T03:25:56.570Z,21.74
2022-09-05T03:29:13.211Z,21.82
2022-09-05T03:31:39.685Z,21.82
2022-09-05T03:34:30.857Z,21.92
2022-09-05T03:37:08.993Z,21.91
2022-09-05T03:40:16.325Z,21.76
2022-09-05T03:43:20.281Z,21.82
2022-09-05T03:46:04.367Z,21.78
2022-09-05T03:48:39.857Z,21.72
2022-09-05T03:57:04.746Z,21.73
2022-09-05T03:57:17.816Z,21.90
2022-09-05T03:57:42.338Z,21.90
2022-09-05T04:00:20.944Z,21.90
2022-09-05T04:08:08.889Z,21.81
2022-09-05T04:08:31.534Z,21.67
2022-09-05T04:09:06.149Z,21.35
2022-09-05T04:11:47.498Z,21.28
2022-09-05T04:14:31.171Z,21.14
2022-09-05T04:17:08.577Z,20.95
2022-09-05T04:19:43.979Z,20.73
2022-09-05T04:22:50.238Z,20.65
2022-09-05T04:25:31.749Z,20.50
2022-09-05T04:28:51.688Z,20.49
2022-09-05T04:32:18.396Z,20.19
2022-09-05T04:35:28.874Z,20.08
2022-09-05T04:38:12.525Z,20.06
2022-09-05T04:41:03.716Z,20.03
2022-09-05T04:43:40.390Z,19.95
2022-09-05T04:46:22.183Z,19.77
2022-09-05T04:49:09.347Z,19.69
2022-09-05T04:52:01.340Z,19.67
2022-09-05T04:54:42.371Z,19.59
2022-09-05T04:57:13.852Z,19.63
2022-09-05T05:05:58.426Z,19.57
2022-09-05T05:06:10.312Z,19.73
2022-09-05T05:06:11.032Z,19.74
2022-09-05T05:09:13.429Z,19.71
2022-09-05T05:18:01.868Z,19.90
2022-09-05T05:18:10.546Z,19.81
2022-09-05T05:18:42.258Z,19.72
2022-09-05T05:20:58.492Z,19.77
2022-09-05T05:23:36.056Z,19.70
2022-09-05T05:26:06.521Z,19.66
2022-09-05T05:29:11.393Z,20.04
2022-09-05T05:31:46.649Z,20.14
2022-09-05T05:34:24.758Z,20.43
2022-09-05T05:37:30.046Z,20.64
2022-09-05T05:40:10.453Z,20.73
2022-09-05T05:42:44.637Z,20.73
2022-09-05T05:45:27.712Z,20.76
2022-09-05T05:48:04.342Z,20.91
2022-09-05T05:50:49.981Z,21.04
2022-09-05T05:53:43.746Z,20.89
2022-09-05T05:56:35.556Z,21.12
2022-09-05T05:59:02.061Z,21.06
2022-09-05T06:02:04.356Z,21.11
2022-09-05T06:05:03.944Z,21.25
2022-09-05T06:10:31.777Z,21.18
2022-09-05T06:14:50.528Z,21.25
2022-09-05T06:15:00.162Z,21.49
2022-09-05T06:17:19.978Z,21.55
2022-09-05T06:22:05.588Z,21.53
2022-09-05T06:23:27.517Z,21.63
2022-09-05T06:26:18.832Z,21.58
2022-09-05T06:29:13.376Z,21.73
2022-09-05T06:31:40.179Z,21.79
2022-09-05T06:34:35.027Z,21.84
2022-09-05T06:37:41.896Z,21.84
2022-09-05T06:40:17.639Z,22.09
2022-09-05T06:43:31.823Z,22.09
2022-09-05T06:46:06.654Z,22.24
2022-09-05T06:49:29.862Z,22.26
2022-09-05T06:52:27.936Z,22.32
2022-09-05T06:55:14.184Z,22.47
2022-09-05T06:58:17.879Z,22.54
2022-09-05T07:00:50.427Z,22.59
2022-09-05T07:03:39.418Z,22.72
2022-09-05T07:07:01.235Z,22.78
2022-09-05T07:09:46.946Z,23.00
2022-09-05T07:12:21.478Z,23.08
2022-09-05T07:15:16.097Z,23.28
2022-09-05T07:18:15.857Z,23.60
2022-09-05T07:21:16.814Z,23.82
2022-09-05T07:24:06.830Z,24.23
2022-09-05T07:26:52.506Z,24.40
2022-09-05T07:29:23.863Z,24.54
2022-09-05T07:31:55.422Z,24.75
2022-09-05T07:34:27.521Z,24.88
2022-09-05T07:37:21.447Z,25.24
2022-09-05T07:39:57.121Z,25.33
2022-09-05T07:42:48.843Z,25.29
2022-09-05T07:45:37.898Z,25.64
2022-09-05T07:48:35.422Z,25.70
2022-09-05T07:56:34.709Z,25.46
2022-09-05T07:57:10.879Z,25.71
2022-09-05T07:59:42.662Z,26.07
2022-09-05T08:02:11.933Z,26.16
2022-09-05T08:04:41.795Z,26.26
2022-09-05T08:07:49.303Z,26.37
2022-09-05T08:10:09.756Z,26.50
2022-09-05T08:13:24.192Z,26.70
2022-09-05T08:16:00.749Z,26.94
2022-09-05T08:18:42.735Z,27.32
2022-09-05T08:21:27.103Z,27.45
2022-09-05T08:24:13.774Z,27.20
2022-09-05T08:26:44.060Z,27.11
2022-09-05T08:29:46.241Z,27.35
2022-09-05T08:32:19.544Z,27.59
2022-09-05T08:35:03.430Z,27.94
2022-09-05T08:37:32.121Z,28.38
2022-09-05T08:40:17.695Z,28.37
2022-09-05T08:46:37.587Z,28.49
2022-09-05T08:46:44.173Z,28.49
2022-09-05T08:49:12.374Z,28.60
2022-09-05T08:52:09.315Z,29.10
2022-09-05T08:54:54.840Z,29.68
2022-09-05T08:57:48.657Z,30.10
2022-09-05T09:00:24.624Z,29.88
2022-09-05T09:03:09.097Z,29.86
2022-09-05T09:06:14.354Z,30.16
2022-09-05T09:08:56.317Z,30.43
2022-09-05T09:11:36.950Z,30.39
2022-09-05T09:14:31.151Z,30.79
2022-09-05T09:17:05.157Z,30.69
2022-09-05T09:19:46.831Z,30.62
2022-09-05T09:22:39.574Z,30.46
2022-09-05T09:25:15.898Z,30.63
2022-09-05T09:28:47.918Z,30.65
2022-09-05T09:30:54.752Z,31.18
2022-09-05T09:33:40.554Z,32.16
2022-09-05T09:37:50.076Z,32.53
2022-09-05T09:39:39.786Z,32.85
2022-09-05T09:42:09.490Z,33.07
2022-09-05T09:45:27.531Z,33.36
2022-09-05T09:48:08.501Z,32.77
2022-09-05T09:50:59.376Z,32.92
2022-09-05T09:54:11.483Z,32.66
2022-09-05T09:56:56.266Z,32.12
2022-09-05T09:59:22.778Z,32.46
2022-09-05T10:03:26.971Z,32.53
2022-09-05T10:10:38.985Z,32.76
2022-09-05T10:10:44.274Z,31.97
2022-09-05T10:11:55.290Z,32.13
2022-09-05T10:14:56.378Z,33.05
2022-09-05T10:17:48.001Z,33.91
2022-09-05T10:20:39.468Z,34.36
2022-09-05T10:23:27.500Z,33.91
2022-09-05T10:26:16.330Z,33.81
2022-09-05T10:28:57.898Z,33.62
2022-09-05T10:35:08.003Z,34.59
2022-09-05T10:35:09.967Z,34.13
2022-09-05T10:38:11.075Z,35.37
2022-09-05T10:41:21.883Z,35.50
2022-09-05T10:43:31.647Z,35.22
2022-09-05T10:45:58.875Z,35.58
2022-09-05T10:48:31.060Z,35.88
2022-09-05T10:51:26.911Z,35.86
2022-09-05T10:54:22.984Z,35.83
2022-09-05T10:57:26.408Z,36.11
2022-09-05T11:02:22.802Z,35.81
2022-09-05T11:03:01.487Z,35.80
2022-09-05T11:05:37.688Z,36.10
2022-09-05T11:08:41.752Z,36.11
2022-09-05T11:11:28.168Z,36.41
2022-09-05T11:14:27.017Z,36.72
2022-09-05T11:17:04.530Z,36.58
2022-09-05T11:19:43.359Z,36.73
2022-09-05T11:22:22.882Z,36.40
2022-09-05T11:24:55.729Z,36.89
2022-09-05T11:27:31.391Z,37.20
2022-09-05T11:30:04.352Z,37.14
2022-09-05T11:38:35.547Z,37.53
2022-09-05T11:40:09.704Z,37.21
2022-09-05T11:40:26.400Z,37.42
2022-09-05T11:42:06.320Z,37.33
2022-09-05T11:44:54.354Z,37.12
2022-09-05T11:48:04.898Z,37.21
2022-09-05T11:50:50.459Z,37.53
2022-09-05T11:53:29.288Z,37.47
2022-09-05T11:56:28.997Z,38.03
2022-09-05T11:59:47.053Z,38.57
2022-09-05T12:02:50.498Z,38.73
2022-09-05T12:05:49.739Z,38.67
2022-09-05T12:08:39.824Z,38.36
2022-09-05T12:11:44.094Z,37.95
2022-09-05T12:14:25.574Z,37.55
2022-09-05T12:17:02.511Z,36.63
2022-09-05T12:20:06.175Z,36.86
2022-09-05T12:22:59.365Z,36.90
2022-09-05T12:27:42.320Z,36.73
2022-09-05T12:29:26.563Z,37.37
2022-09-05T12:33:11.438Z,38.11
2022-09-05T12:36:06.057Z,38.75
2022-09-05T12:40:44.853Z,38.61
2022-09-05T12:41:36.125Z,38.15
2022-09-05T12:44:39.284Z,38.42
2022-09-05T12:46:24.578Z,38.51
2022-09-05T12:49:10.515Z,38.22
2022-09-05T12:51:47.672Z,38.36
2022-09-05T12:54:40.405Z,37.91
2022-09-05T13:00:06.931Z,37.36
2022-09-05T13:03:07.760Z,36.98
2022-09-05T13:03:37.914Z,36.23
2022-09-05T13:06:09.480Z,35.72
2022-09-05T13:08:59.426Z,35.12
2022-09-05T13:14:50.670Z,34.64
2022-09-05T13:14:58.749Z,34.46
2022-09-05T13:17:41.360Z,36.01
2022-09-05T13:20:39.777Z,37.12
2022-09-05T13:23:30.375Z,37.71
2022-09-05T13:26:01.576Z,37.71
2022-09-05T13:28:43.150Z,37.89
2022-09-05T13:35:27.162Z,38.00
2022-09-05T13:38:10.166Z,37.18
2022-09-05T13:38:30.503Z,36.05
2022-09-05T13:40:09.769Z,35.24
2022-09-05T13:42:59.161Z,35.87
2022-09-05T13:45:27.086Z,36.99
2022-09-05T13:48:27.775Z,37.54
2022-09-05T13:51:02.988Z,36.87
2022-09-05T13:53:36.999Z,36.83
2022-09-05T13:56:24.012Z,36.96
2022-09-05T13:59:19.746Z,37.15
2022-09-05T14:02:05.734Z,37.94
2022-09-05T14:05:19.446Z,38.35
2022-09-05T14:08:02.327Z,38.42
2022-09-05T14:11:03.205Z,38.62
2022-09-05T14:14:02.233Z,38.69
2022-09-05T14:16:34.793Z,39.09
2022-09-05T14:19:50.131Z,39.29
2022-09-05T14:22:32.687Z,39.17
2022-09-05T14:25:00.554Z,38.67
2022-09-05T14:27:32.263Z,38.51
2022-09-05T14:30:35.559Z,38.68
2022-09-05T14:37:52.815Z,38.57
2022-09-05T14:37:55.240Z,37.70
2022-09-05T14:39:18.324Z,37.35
2022-09-05T14:42:19.204Z,37.21
2022-09-05T14:44:59.334Z,36.98
2022-09-05T14:47:50.164Z,36.82
2022-09-05T14:50:50.695Z,37.04
2022-09-05T15:00:59.950Z,36.92
2022-09-05T15:02:39.546Z,36.93
2022-09-05T15:02:51.668Z,36.91
2022-09-05T15:05:15.957Z,36.89
2022-09-05T15:07:50.579Z,36.95
2022-09-05T15:12:18.809Z,36.66
2022-09-05T15:13:25.755Z,36.31
2022-09-05T15:16:06.598Z,35.93
2022-09-05T15:18:44.220Z,35.57
2022-09-05T15:21:33.327Z,35.58
2022-09-05T15:24:27.063Z,35.68
2022-09-05T15:27:01.466Z,35.73
2022-09-05T15:29:30.490Z,35.80
2022-09-05T15:32:16.748Z,35.43
2022-09-05T15:34:43.507Z,35.39
2022-09-05T15:37:28.383Z,35.26
2022-09-05T15:40:12.273Z,35.07
2022-09-05T15:43:02.113Z,34.88
2022-09-05T15:45:32.220Z,34.70
2022-09-05T15:48:06.481Z,34.54
2022-09-05T15:50:41.893Z,34.24
2022-09-05T15:53:20.575Z,33.78
2022-09-05T15:55:50.433Z,33.59
2022-09-05T15:58:53.132Z,33.31
2022-09-05T16:02:00.544Z,33.27
2022-09-05T16:10:26.931Z,33.23
2022-09-05T16:10:46.268Z,33.10
2022-09-05T16:10:46.269Z,33.13
2022-09-05T16:13:13.280Z,32.95
2022-09-05T16:22:12.587Z,32.78
2022-09-05T16:23:19.909Z,32.84
2022-09-05T16:23:25.845Z,32.83
2022-09-05T16:24:41.514Z,32.67
2022-09-05T16:27:52.168Z,32.31
2022-09-05T16:30:29.060Z,31.95
2022-09-05T16:33:07.963Z,31.57
2022-09-05T16:35:41.987Z,31.30
2022-09-05T16:38:25.861Z,31.00
2022-09-05T16:41:39.569Z,30.47
2022-09-05T16:44:25.754Z,30.09
2022-09-05T16:47:12.308Z,29.74
2022-09-05T16:49:46.559Z,28.71
2022-09-05T16:52:17.169Z,27.87
2022-09-05T16:55:12.802Z,26.84
2022-09-05T16:57:56.676Z,26.59
2022-09-05T17:00:27.606Z,26.24
2022-09-05T17:03:04.853Z,26.23
2022-09-05T17:05:46.232Z,26.07
2022-09-05T17:08:28.061Z,25.84
2022-09-05T17:11:04.867Z,25.93
2022-09-05T17:13:45.236Z,26.18
2022-09-05T17:16:32.559Z,26.48
2022-09-05T17:19:01.514Z,26.60
2022-09-05T17:23:23.894Z,26.90
2022-09-05T17:29:24.589Z,27.50
2022-09-05T17:29:37.837Z,27.15
2022-09-05T17:32:53.573Z,27.47
2022-09-05T17:35:54.351Z,27.37
2022-09-05T17:38:47.881Z,27.01
2022-09-05T17:41:33.581Z,26.81
2022-09-05T17:44:18.439Z,26.61
2022-09-05T17:46:57.367Z,26.50
2022-09-05T17:49:45.592Z,26.34
2022-09-05T17:52:17.415Z,26.19
2022-09-05T17:54:52.594Z,26.08
2022-09-05T17:57:33.197Z,26.04
2022-09-05T18:00:12.149Z,25.92
2022-09-05T18:02:56.950Z,25.83
2022-09-05T18:06:12.089Z,25.82
2022-09-05T18:08:48.724Z,25.66
2022-09-05T18:11:25.191Z,25.58
2022-09-05T18:14:14.887Z,25.59
2022-09-05T18:19:43.987Z,25.16
2022-09-05T18:22:27.468Z,25.00
2022-09-05T18:25:13.908Z,25.05
2022-09-05T18:28:04.708Z,24.91
2022-09-05T18:33:53.573Z,24.78
2022-09-05T18:35:54.422Z,24.63
2022-09-05T18:38:50.026Z,24.55
2022-09-05T18:41:12.974Z,24.50
2022-09-05T18:43:57.199Z,24.40
2022-09-05T18:46:42.238Z,24.30
2022-09-05T18:50:21.451Z,24.17
2022-09-05T18:52:41.684Z,23.89
2022-09-05T18:56:11.297Z,24.21
2022-09-05T18:58:25.773Z,24.04
2022-09-05T19:00:55.256Z,23.93
2022-09-05T19:03:29.668Z,23.98
2022-09-05T19:06:04.307Z,24.00
2022-09-05T19:09:03.224Z,23.84
2022-09-05T19:11:53.487Z,23.71
2022-09-05T19:14:38.546Z,23.67
2022-09-05T19:17:17.042Z,23.66
2022-09-05T19:20:31.050Z,23.76
2022-09-05T19:23:09.775Z,23.81
2022-09-05T19:25:43.405Z,23.79
2022-09-05T19:31:49.206Z,23.76
2022-09-05T19:36:59.992Z,23.80
2022-09-05T19:37:03.294Z,23.53
2022-09-05T19:43:57.640Z,23.86
2022-09-05T19:47:34.560Z,23.98
2022-09-05T19:47:36.962Z,23.93
2022-09-05T19:48:27.123Z,23.86
2022-09-05T19:50:56.343Z,23.75
2022-09-05T19:53:23.636Z,23.26
2022-09-05T19:55:50.623Z,23.28
2022-09-05T19:58:21.127Z,23.42
2022-09-05T20:01:00.822Z,23.43
2022-09-05T20:03:39.814Z,23.31
2022-09-05T20:06:28.659Z,23.34
2022-09-05T20:09:15.107Z,23.24
2022-09-05T20:11:49.995Z,23.13
2022-09-05T20:14:18.868Z,23.32
2022-09-05T20:16:49.880Z,23.32
2022-09-05T20:19:33.306Z,23.30
2022-09-05T20:22:47.365Z,23.12
2022-09-05T20:25:11.202Z,23.16
2022-09-05T20:28:07.148Z,23.31
2022-09-05T20:30:41.326Z,23.31
2022-09-05T20:33:25.650Z,23.42
2022-09-05T20:43:11.815Z,23.55
2022-09-05T20:43:24.928Z,23.81
2022-09-05T20:43:30.099Z,23.81
2022-09-05T20:44:32.884Z,23.81
2022-09-05T20:51:31.610Z,23.50
2022-09-05T20:54:14.520Z,23.05
2022-09-05T20:54:15.604Z,23.40
2022-09-05T20:56:20.611Z,23.47
2022-09-05T20:58:50.264Z,23.38
2022-09-05T21:01:24.865Z,23.30
2022-09-05T21:04:04.662Z,23.21
2022-09-05T21:06:36.758Z,22.91
2022-09-05T21:09:22.588Z,22.92
2022-09-05T21:11:53.419Z,22.56
2022-09-05T21:14:23.515Z,22.35
2022-09-05T21:17:15.426Z,22.52
2022-09-05T21:19:43.851Z,22.61
2022-09-05T21:22:20.905Z,22.40
2022-09-05T21:24:48.334Z,22.38
2022-09-05T21:27:23.413Z,22.59
2022-09-05T21:29:58.584Z,22.64
2022-09-05T21:32:27.941Z,22.57
2022-09-05T21:35:15.319Z,22.46
2022-09-05T21:37:53.534Z,22.45
2022-09-05T21:40:21.394Z,22.50
2022-09-05T21:44:35.880Z,22.37
2022-09-05T21:47:43.441Z,22.33
2022-09-05T21:48:23.938Z,22.22
2022-09-05T21:50:57.480Z,22.14
2022-09-05T21:59:13.359Z,22.04
2022-09-05T21:59:21.903Z,22.02
2022-09-05T21:59:38.881Z,21.85
2022-09-05T22:02:13.520Z,21.79
2022-09-05T22:04:41.501Z,21.59
2022-09-05T22:07:30.524Z,21.59
2022-09-05T22:09:59.435Z,21.67
2022-09-05T22:12:37.943Z,21.59
2022-09-05T22:15:28.004Z,21.48
2022-09-05T22:18:16.629Z,21.50
2022-09-05T22:21:02.619Z,21.63
2022-09-05T22:23:36.689Z,21.50
2022-09-05T22:26:05.369Z,21.61
2022-09-05T22:28:34.206Z,21.59
2022-09-05T22:31:07.072Z,21.51
2022-09-05T22:33:33.962Z,21.28
2022-09-05T22:36:00.533Z,21.62
2022-09-05T22:38:27.154Z,21.16
2022-09-05T22:40:55.958Z,20.85
2022-09-05T22:43:23.771Z,21.30
2022-09-05T22:45:55.214Z,21.71
2022-09-05T22:48:22.014Z,21.88
2022-09-05T22:50:48.638Z,21.59
2022-09-05T22:53:15.234Z,21.40
2022-09-05T22:55:43.510Z,21.41
2022-09-05T22:58:12.651Z,21.39
2022-09-05T23:00:44.511Z,21.36
2022-09-05T23:03:11.190Z,21.46
2022-09-05T23:05:37.888Z,21.46
2022-09-05T23:08:06.085Z,21.48
2022-09-05T23:10:33.651Z,21.31
2022-09-05T23:13:06.974Z,21.32
2022-09-05T23:15:35.507Z,21.28
2022-09-05T23:18:03.073Z,21.15
2022-09-05T23:20:31.728Z,21.20
2022-09-05T23:23:02.815Z,21.11
2022-09-05T23:25:29.404Z,21.08
2022-09-05T23:27:56.146Z,21.04
2022-09-05T23:30:22.707Z,21.06
2022-09-05T23:32:51.419Z,20.88
2022-09-05T23:35:19.039Z,21.15
2022-09-05T23:37:47.406Z,21.09
2022-09-05T23:40:17.723Z,21.54
2022-09-05T23:43:13.437Z,21.46
2022-09-05T23:45:40.022Z,20.93
2022-09-05T23:48:06.558Z,20.95
2022-09-05T23:50:33.124Z,21.08
2022-09-05T23:53:04.198Z,21.21
2022-09-05T23:55:32.316Z,21.12
2022-09-05T23:57:59.096Z,21.10
